createdAt,value
2023-11-18T00:00:00.538Z,97160.31
2023-11-18T00:02:27.176Z,97162.38
2023-11-18T00:04:53.994Z,97157.88
2023-11-18T00:07:20.468Z,97163.47
2023-11-18T00:09:46.902Z,97149.84
2023-11-18T00:12:13.299Z,97142.94
2023-11-18T00:14:42.959Z,97146.22
2023-11-18T00:17:09.491Z,97149.38
2023-11-18T00:19:36.019Z,97156.50
2023-11-18T00:22:05.539Z,97157.56
2023-11-18T00:24:31.949Z,97164.56
2023-11-18T00:26:58.710Z,97159.50
2023-11-18T00:29:25.453Z,97158.63
2023-11-18T00:31:51.989Z,97153.25
2023-11-18T00:34:18.912Z,97157.97
2023-11-18T00:36:47.688Z,97153.00
2023-11-18T00:39:17.080Z,97160.16
2023-11-18T00:41:43.537Z,97161.47
2023-11-18T00:44:10.006Z,97168.47
2023-11-18T00:46:36.501Z,97163.78
2023-11-18T00:49:03.209Z,97175.53
2023-11-18T00:51:29.776Z,97168.47
2023-11-18T00:53:58.693Z,97161.97
2023-11-18T00:56:25.304Z,97167.91
2023-11-18T00:58:52.427Z,97163.59
2023-11-18T01:01:19.173Z,97157.78
2023-11-18T01:03:45.798Z,97163.91
2023-11-18T01:06:12.666Z,97164.69
2023-11-18T01:08:39.364Z,97159.97
2023-11-18T01:11:05.956Z,97166.03
2023-11-18T01:13:34.968Z,97158.16
2023-11-18T01:16:04.369Z,97168.47
2023-11-18T01:18:31.063Z,97171.78
2023-11-18T01:20:58.733Z,97161.38
2023-11-18T01:23:27.334Z,97170.88
2023-11-18T01:25:53.984Z,97172.53
2023-11-18T01:28:20.710Z,97181.81
2023-11-18T01:30:47.319Z,97183.19
2023-11-18T01:33:14.178Z,97190.81
2023-11-18T01:35:43.378Z,97188.91
2023-11-18T01:38:10.043Z,97182.47
2023-11-18T01:40:37.438Z,97176.91
2023-11-18T01:43:04.094Z,97180.88
2023-11-18T01:45:42.151Z,97163.13
2023-11-18T01:48:09.488Z,97164.22
2023-11-18T01:50:36.066Z,97160.38
2023-11-18T01:53:03.183Z,97164.22
2023-11-18T01:55:35.329Z,97156.84
2023-11-18T01:58:01.917Z,97157.28
2023-11-18T02:00:28.473Z,97162.22
2023-11-18T02:02:55.457Z,97162.41
2023-11-18T02:05:27.927Z,97165.97
2023-11-18T02:07:54.401Z,97168.91
2023-11-18T02:10:20.848Z,97169.53
2023-11-18T02:12:47.453Z,97163.72
2023-11-18T02:15:16.904Z,97168.63
2023-11-18T02:17:43.546Z,97169.88
2023-11-18T02:20:10.596Z,97165.75
2023-11-18T02:22:37.093Z,97171.56
2023-11-18T02:27:53.818Z,97183.25
2023-11-18T02:30:41.694Z,97177.78
2023-11-18T02:33:16.316Z,97174.53
2023-11-18T02:35:43.848Z,97162.63
2023-11-18T02:38:13.550Z,97164.88
2023-11-18T02:40:40.447Z,97162.34
2023-11-18T02:43:11.165Z,97166.09
2023-11-18T02:45:43.825Z,97172.31
2023-11-18T02:48:10.614Z,97162.84
2023-11-18T02:50:37.674Z,97175.34
2023-11-18T02:53:04.417Z,97182.31
2023-11-18T02:55:34.903Z,97169.72
2023-11-18T02:58:06.799Z,97182.00
2023-11-18T03:00:33.660Z,97173.94
2023-11-18T03:03:00.143Z,97179.97
2023-11-18T03:05:26.729Z,97183.59
2023-11-18T03:07:56.296Z,97183.63
2023-11-18T03:10:23.261Z,97175.19
2023-11-18T03:12:50.050Z,97176.28
2023-11-18T03:15:17.486Z,97183.09
2023-11-18T03:17:44.087Z,97167.06
2023-11-18T03:20:10.789Z,97166.19
2023-11-18T03:22:37.370Z,97160.66
2023-11-18T03:25:04.074Z,97148.66
2023-11-18T03:27:30.613Z,97152.06
2023-11-18T03:29:57.417Z,97159.91
2023-11-18T03:32:24.995Z,97166.94
2023-11-18T03:34:51.671Z,97162.44
2023-11-18T03:37:18.627Z,97160.78
2023-11-18T03:39:45.192Z,97159.09
2023-11-18T03:42:11.767Z,97157.75
2023-11-18T03:44:38.436Z,97163.13
2023-11-18T03:47:06.167Z,97156.06
2023-11-18T03:49:37.105Z,97154.88
2023-11-18T03:52:06.683Z,97157.38
2023-11-18T03:54:33.276Z,97156.22
2023-11-18T03:56:59.920Z,97167.97
2023-11-18T03:59:26.525Z,97168.19
2023-11-18T04:01:53.314Z,97162.63
2023-11-18T04:04:20.055Z,97138.81
2023-11-18T04:06:46.636Z,97145.66
2023-11-18T04:09:13.471Z,97140.28
2023-11-18T04:11:40.038Z,97141.81
2023-11-18T04:14:10.499Z,97148.34
2023-11-18T04:16:37.132Z,97142.16
2023-11-18T04:19:03.581Z,97156.75
2023-11-18T04:21:30.193Z,97158.38
2023-11-18T04:23:56.591Z,97165.56
2023-11-18T04:26:23.038Z,97155.03
2023-11-18T04:28:49.498Z,97159.91
2023-11-18T04:31:16.042Z,97159.75
2023-11-18T04:33:42.485Z,97164.38
2023-11-18T04:36:08.877Z,97161.69
2023-11-18T04:38:35.311Z,97159.56
2023-11-18T04:41:01.751Z,97160.72
2023-11-18T04:43:35.036Z,97159.00
2023-11-18T04:46:11.542Z,97161.88
2023-11-18T04:48:40.771Z,97161.59
2023-11-18T04:51:08.654Z,97156.97
2023-11-18T04:53:35.139Z,97157.19
2023-11-18T04:56:01.920Z,97150.94
2023-11-18T04:58:28.378Z,97158.78
2023-11-18T05:00:54.821Z,97160.63
2023-11-18T05:03:21.527Z,97148.31
2023-11-18T05:05:48.331Z,97155.66
2023-11-18T05:08:18.878Z,97164.06
2023-11-18T05:10:45.383Z,97160.44
2023-11-18T05:13:11.799Z,97171.78
2023-11-18T05:15:40.799Z,97168.41
2023-11-18T05:18:07.894Z,97157.97
2023-11-18T05:20:34.947Z,97176.63
2023-11-18T05:23:01.669Z,97179.91
2023-11-18T05:25:28.434Z,97170.41
2023-11-18T05:27:57.174Z,97157.97
2023-11-18T05:30:23.873Z,97168.69
2023-11-18T05:32:50.520Z,97181.69
2023-11-18T05:35:19.578Z,97161.97
2023-11-18T05:37:46.147Z,97164.63
2023-11-18T05:40:13.036Z,97159.50
2023-11-18T05:42:40.480Z,97152.66
2023-11-18T05:45:09.834Z,97143.03
2023-11-18T05:47:37.630Z,97152.16
2023-11-18T05:50:04.359Z,97149.03
2023-11-18T05:52:31.172Z,97143.22
2023-11-18T05:54:58.775Z,97146.78
2023-11-18T05:57:25.299Z,97149.97
2023-11-18T05:59:52.161Z,97147.56
2023-11-18T06:02:18.764Z,97148.25
2023-11-18T06:04:45.398Z,97143.44
2023-11-18T06:07:20.083Z,97122.75
2023-11-18T06:09:46.778Z,97125.56
2023-11-18T06:12:13.440Z,97134.13
2023-11-18T06:14:40.281Z,97130.81
2023-11-18T06:17:07.243Z,97132.25
2023-11-18T06:19:33.868Z,97130.72
2023-11-18T06:22:00.411Z,97127.34
2023-11-18T06:24:27.017Z,97130.34
2023-11-18T06:26:53.630Z,97122.94
2023-11-18T06:29:22.310Z,97116.84
2023-11-18T06:31:49.029Z,97120.94
2023-11-18T06:34:15.685Z,97118.34
2023-11-18T06:36:42.275Z,97120.81
2023-11-18T06:39:10.948Z,97125.09
2023-11-18T06:41:37.694Z,97126.22
2023-11-18T06:44:06.743Z,97132.19
2023-11-18T06:46:33.404Z,97139.00
2023-11-18T06:49:00.641Z,97135.09
2023-11-18T06:51:27.782Z,97154.78
2023-11-18T06:53:55.237Z,97148.00
2023-11-18T06:56:21.949Z,97147.91
2023-11-18T06:58:48.506Z,97140.56
2023-11-18T07:01:15.242Z,97142.50
2023-11-18T07:03:45.096Z,97150.69
2023-11-18T07:06:11.797Z,97152.22
2023-11-18T07:08:38.261Z,97156.25
2023-11-18T07:11:04.713Z,97152.94
2023-11-18T07:13:31.185Z,97151.94
2023-11-18T07:15:57.612Z,97164.31
2023-11-18T07:18:24.028Z,97167.38
2023-11-18T07:20:50.446Z,97177.09
2023-11-18T07:23:16.886Z,97171.63
2023-11-18T07:25:43.379Z,97159.13
2023-11-18T07:28:09.915Z,97156.59
2023-11-18T07:30:36.520Z,97164.50
2023-11-18T07:33:02.969Z,97173.69
2023-11-18T07:35:29.665Z,97171.31
2023-11-18T07:37:56.119Z,97168.69
2023-11-18T07:40:22.532Z,97164.97
2023-11-18T07:42:48.958Z,97153.75
2023-11-18T07:45:15.482Z,97156.41
2023-11-18T07:47:41.930Z,97162.22
2023-11-18T07:50:08.413Z,97162.66
2023-11-18T07:52:34.831Z,97173.53
2023-11-18T07:55:01.221Z,97182.50
2023-11-18T07:57:28.028Z,97175.59
2023-11-18T07:59:54.624Z,97179.00
2023-11-18T08:02:21.263Z,97162.16
2023-11-18T08:04:48.108Z,97169.28
2023-11-18T08:07:14.698Z,97168.91
2023-11-18T08:09:41.347Z,97187.03
2023-11-18T08:12:08.091Z,97182.75
2023-11-18T08:14:34.682Z,97186.88
2023-11-18T08:17:01.561Z,97185.25
2023-11-18T08:19:28.204Z,97191.78
2023-11-18T08:21:54.982Z,97186.34
2023-11-18T08:24:23.865Z,97185.50
2023-11-18T08:26:50.476Z,97181.72
2023-11-18T08:29:17.830Z,97184.16
2023-11-18T08:31:44.545Z,97178.41
2023-11-18T08:34:11.227Z,97164.91
2023-11-18T08:36:37.831Z,97155.78
2023-11-18T08:39:04.404Z,97157.25
2023-11-18T08:41:34.890Z,97169.63
2023-11-18T08:44:13.677Z,97159.28
2023-11-18T08:46:47.792Z,97178.03
2023-11-18T08:49:14.325Z,97173.69
2023-11-18T08:51:40.790Z,97160.72
2023-11-18T08:54:07.198Z,97179.00
2023-11-18T08:56:33.618Z,97183.03
2023-11-18T08:59:00.372Z,97156.69
2023-11-18T09:01:26.847Z,97170.22
2023-11-18T09:03:54.028Z,97168.31
2023-11-18T09:06:20.925Z,97170.84
2023-11-18T09:08:50.417Z,97166.09
2023-11-18T09:11:16.900Z,97164.59
2023-11-18T09:13:43.465Z,97165.25
2023-11-18T09:16:10.402Z,97150.84
2023-11-18T09:18:40.481Z,97151.59
2023-11-18T09:21:10.003Z,97145.78
2023-11-18T09:23:36.806Z,97136.41
2023-11-18T09:26:03.299Z,97136.53
2023-11-18T09:28:29.809Z,97142.19
2023-11-18T09:30:56.474Z,97147.19
2023-11-18T09:33:23.062Z,97160.00
2023-11-18T09:35:49.726Z,97151.53
2023-11-18T09:38:16.174Z,97162.97
2023-11-18T09:40:42.666Z,97171.59
2023-11-18T09:43:09.796Z,97176.13
2023-11-18T09:45:36.381Z,97176.22
2023-11-18T09:48:03.083Z,97168.94
2023-11-18T09:50:29.857Z,97163.94
2023-11-18T09:52:56.577Z,97169.84
2023-11-18T09:55:26.371Z,97178.06
2023-11-18T09:57:54.785Z,97179.63
2023-11-18T10:00:22.931Z,97173.53
2023-11-18T10:02:49.794Z,97175.75
2023-11-18T10:05:16.585Z,97173.09
2023-11-18T10:07:43.542Z,97169.38
2023-11-18T10:10:10.153Z,97153.69
2023-11-18T10:12:36.776Z,97151.38
2023-11-18T10:15:06.364Z,97159.06
2023-11-18T10:17:32.974Z,97147.13
2023-11-18T10:19:59.503Z,97145.13
2023-11-18T10:22:25.910Z,97131.31
2023-11-18T10:24:52.441Z,97133.97
2023-11-18T10:27:18.882Z,97125.88
2023-11-18T10:29:45.310Z,97126.44
2023-11-18T10:32:11.936Z,97122.41
2023-11-18T10:34:38.591Z,97129.56
2023-11-18T10:37:05.087Z,97125.53
2023-11-18T10:39:31.539Z,97128.13
2023-11-18T10:42:01.001Z,97131.94
2023-11-18T10:44:28.084Z,97135.41
2023-11-18T10:46:54.621Z,97143.91
2023-11-18T10:49:21.183Z,97153.66
2023-11-18T10:51:47.584Z,97153.69
2023-11-18T10:54:14.006Z,97142.25
2023-11-18T10:56:40.768Z,97139.44
2023-11-18T10:59:07.545Z,97145.41
2023-11-18T11:01:34.239Z,97155.88
2023-11-18T11:04:03.336Z,97164.97
2023-11-18T11:06:31.115Z,97158.88
2023-11-18T11:08:57.789Z,97157.78
2023-11-18T11:11:24.245Z,97159.13
2023-11-18T11:13:50.876Z,97157.25
2023-11-18T11:16:17.483Z,97158.38
2023-11-18T11:18:44.401Z,97152.00
2023-11-18T11:21:10.989Z,97141.72
2023-11-18T11:23:37.687Z,97155.75
2023-11-18T11:26:04.302Z,97145.63
2023-11-18T11:28:31.140Z,97147.50
2023-11-18T11:31:00.580Z,97148.81
2023-11-18T11:33:27.246Z,97150.88
2023-11-18T11:35:53.802Z,97155.38
2023-11-18T11:38:20.442Z,97153.81
2023-11-18T11:40:47.048Z,97157.03
2023-11-18T11:43:13.744Z,97148.81
2023-11-18T11:45:40.491Z,97138.34
2023-11-18T11:48:07.413Z,97143.22
2023-11-18T11:50:34.440Z,97148.22
2023-11-18T11:53:01.595Z,97147.69
2023-11-18T11:55:29.307Z,97141.56
2023-11-18T11:57:56.278Z,97163.25
2023-11-18T12:00:23.108Z,97153.91
2023-11-18T12:02:49.807Z,97166.28
2023-11-18T12:05:16.583Z,97158.19
2023-11-18T12:07:43.415Z,97149.78
2023-11-18T12:10:09.977Z,97148.84
2023-11-18T12:12:36.641Z,97157.28
2023-11-18T12:15:05.785Z,97147.31
2023-11-18T12:17:32.439Z,97141.19
2023-11-18T12:19:59.535Z,97146.41
2023-11-18T12:22:26.378Z,97138.50
2023-11-18T12:24:55.222Z,97143.75
2023-11-18T12:27:25.685Z,97128.41
2023-11-18T12:29:52.253Z,97118.19
2023-11-18T12:32:18.860Z,97120.00
2023-11-18T12:34:45.326Z,97114.16
2023-11-18T12:37:11.803Z,97112.59
2023-11-18T12:39:38.704Z,97122.03
2023-11-18T12:42:05.108Z,97121.63
2023-11-18T12:44:31.530Z,97119.81
2023-11-18T12:46:57.974Z,97109.72
2023-11-18T12:49:24.696Z,97099.19
2023-11-18T12:51:51.298Z,97102.00
2023-11-18T12:54:17.721Z,97088.34
2023-11-18T12:56:44.139Z,97082.28
2023-11-18T12:59:10.604Z,97081.81
2023-11-18T13:01:37.295Z,97082.38
2023-11-18T13:04:04.022Z,97085.13
2023-11-18T13:06:30.623Z,97087.66
2023-11-18T13:08:57.022Z,97080.09
2023-11-18T13:11:23.521Z,97064.78
2023-11-18T13:13:50.015Z,97077.50
2023-11-18T13:16:16.513Z,97073.97
2023-11-18T13:18:43.045Z,97063.28
2023-11-18T13:21:09.468Z,97059.16
2023-11-18T13:23:36.026Z,97054.91
2023-11-18T13:26:02.444Z,97071.28
2023-11-18T13:28:28.928Z,97084.19
2023-11-18T13:30:55.359Z,97095.75
2023-11-18T13:33:22.002Z,97095.63
2023-11-18T13:35:51.216Z,97087.97
2023-11-18T13:38:18.403Z,97093.91
2023-11-18T13:40:45.006Z,97101.44
2023-11-18T13:43:11.542Z,97102.19
2023-11-18T13:45:38.816Z,97101.44
2023-11-18T13:48:05.690Z,97109.16
2023-11-18T13:50:32.354Z,97106.34
2023-11-18T13:52:58.829Z,97093.97
2023-11-18T13:55:25.339Z,97088.81
2023-11-18T13:57:51.732Z,97088.59
2023-11-18T14:00:18.145Z,97084.00
2023-11-18T14:02:44.782Z,97093.94
2023-11-18T14:05:11.434Z,97084.16
2023-11-18T14:07:37.838Z,97085.69
2023-11-18T14:10:04.252Z,97078.47
2023-11-18T14:12:30.710Z,97076.75
2023-11-18T14:14:57.175Z,97082.31
2023-11-18T14:17:23.696Z,97075.19
2023-11-18T14:19:50.248Z,97067.56
2023-11-18T14:22:16.670Z,97064.16
2023-11-18T14:24:43.073Z,97055.97
2023-11-18T14:27:09.556Z,97046.53
2023-11-18T14:29:36.026Z,97043.50
2023-11-18T14:32:02.617Z,97046.97
2023-11-18T14:34:31.441Z,97044.38
2023-11-18T14:36:57.839Z,97047.50
2023-11-18T14:39:24.439Z,97043.78
2023-11-18T14:41:50.929Z,97047.34
2023-11-18T14:44:17.446Z,97066.66
2023-11-18T14:46:43.953Z,97052.41
2023-11-18T14:49:10.426Z,97043.81
2023-11-18T14:51:36.982Z,97041.00
2023-11-18T14:54:03.810Z,97031.47
2023-11-18T14:56:30.416Z,97031.44
2023-11-18T14:58:56.994Z,97033.50
2023-11-18T15:01:23.631Z,97018.91
2023-11-18T15:03:50.622Z,97021.09
2023-11-18T15:06:17.325Z,97019.06
2023-11-18T15:08:46.481Z,97027.66
2023-11-18T15:11:13.318Z,97037.81
2023-11-18T15:13:40.265Z,97045.31
2023-11-18T15:16:06.849Z,97043.06
2023-11-18T15:18:33.818Z,97033.34
2023-11-18T15:21:00.395Z,97035.94
2023-11-18T15:23:27.278Z,97032.00
2023-11-18T15:25:53.986Z,97026.19
2023-11-18T15:28:20.580Z,97024.16
2023-11-18T15:30:47.234Z,97027.28
2023-11-18T15:33:14.001Z,97025.00
2023-11-18T15:35:40.933Z,97034.50
2023-11-18T15:38:07.531Z,97029.00
2023-11-18T15:40:34.120Z,97019.19
2023-11-18T15:43:00.764Z,97018.50
2023-11-18T15:45:27.559Z,97016.38
2023-11-18T15:47:54.360Z,97022.41
2023-11-18T15:50:20.944Z,97014.25
2023-11-18T15:52:47.508Z,97021.56
2023-11-18T15:55:14.114Z,97024.38
2023-11-18T15:57:40.662Z,97024.28
2023-11-18T16:00:07.254Z,97032.13
2023-11-18T16:02:33.912Z,97028.28
2023-11-18T16:05:00.622Z,97029.22
2023-11-18T16:07:27.228Z,97026.88
2023-11-18T16:10:00.058Z,97020.75
2023-11-18T16:12:26.627Z,97019.09
2023-11-18T16:14:53.428Z,97015.00
2023-11-18T16:17:20.043Z,97026.22
2023-11-18T16:19:46.681Z,97019.09
2023-11-18T16:22:13.329Z,97013.66
2023-11-18T16:24:39.982Z,97017.31
2023-11-18T16:27:07.328Z,97010.19
2023-11-18T16:29:36.916Z,97017.19
2023-11-18T16:32:03.607Z,97018.50
2023-11-18T16:34:30.305Z,97016.50
2023-11-18T16:36:57.260Z,97017.63
2023-11-18T16:39:23.930Z,97012.75
2023-11-18T16:41:50.551Z,97001.16
2023-11-18T16:44:17.029Z,97007.13
2023-11-18T16:46:43.474Z,96997.75
2023-11-18T16:49:09.978Z,96992.91
2023-11-18T16:51:36.429Z,97003.94
2023-11-18T16:54:02.842Z,97000.94
2023-11-18T16:56:29.338Z,96989.38
2023-11-18T16:58:55.796Z,96999.25
2023-11-18T17:01:22.221Z,96991.81
2023-11-18T17:03:51.832Z,96984.69
2023-11-18T17:06:18.303Z,96970.84
2023-11-18T17:08:44.740Z,96967.47
2023-11-18T17:11:11.260Z,96975.53
2023-11-18T17:13:37.708Z,96984.50
2023-11-18T17:16:04.193Z,96988.41
2023-11-18T17:18:30.759Z,96980.00
2023-11-18T17:20:57.266Z,96977.72
2023-11-18T17:23:23.786Z,96983.13
2023-11-18T17:25:50.377Z,96984.25
2023-11-18T17:28:17.982Z,96998.91
2023-11-18T17:30:44.554Z,96998.16
2023-11-18T17:33:11.079Z,97000.00
2023-11-18T17:35:37.636Z,97001.63
2023-11-18T17:38:04.111Z,97004.13
2023-11-18T17:40:30.791Z,97002.22
2023-11-18T17:42:59.652Z,96988.22
2023-11-18T17:45:26.220Z,97004.84
2023-11-18T17:47:52.804Z,96995.50
2023-11-18T17:50:23.007Z,96998.19
2023-11-18T17:52:52.407Z,96989.72
2023-11-18T17:55:19.378Z,96993.47
2023-11-18T17:57:46.256Z,96982.50
2023-11-18T18:00:12.961Z,96971.50
2023-11-18T18:02:39.845Z,96962.78
2023-11-18T18:05:06.498Z,96967.06
2023-11-18T18:07:33.139Z,96970.63
2023-11-18T18:09:59.742Z,96968.59
2023-11-18T18:12:26.357Z,96973.09
2023-11-18T18:14:53.441Z,96969.00
2023-11-18T18:17:20.060Z,96968.06
2023-11-18T18:19:46.643Z,96975.16
2023-11-18T18:25:17.759Z,96983.66
2023-11-18T18:27:44.385Z,96971.75
2023-11-18T18:30:10.950Z,96973.22
2023-11-18T18:32:37.727Z,96971.75
2023-11-18T18:35:04.532Z,96972.38
2023-11-18T18:37:31.224Z,96972.03
2023-11-18T18:39:57.881Z,96972.91
2023-11-18T18:42:24.605Z,96978.50
2023-11-18T18:44:51.187Z,96979.00
2023-11-18T18:47:20.218Z,96976.00
2023-11-18T18:49:48.316Z,96966.72
2023-11-18T18:52:14.881Z,96973.78
2023-11-18T18:54:41.528Z,96979.66
2023-11-18T18:57:08.167Z,96974.59
2023-11-18T18:59:34.678Z,96962.22
2023-11-18T19:02:06.145Z,96961.44
2023-11-18T19:04:32.919Z,96957.88
2023-11-18T19:06:59.353Z,96957.03
2023-11-18T19:09:28.790Z,96941.69
2023-11-18T19:11:55.191Z,96948.75
2023-11-18T19:14:24.691Z,96948.94
2023-11-18T19:16:51.233Z,96939.59
2023-11-18T19:19:17.787Z,96946.09
2023-11-18T19:21:44.541Z,96931.56
2023-11-18T19:24:10.984Z,96922.19
2023-11-18T19:26:37.584Z,96916.44
2023-11-18T19:29:04.103Z,96936.03
2023-11-18T19:31:30.535Z,96959.25
2023-11-18T19:33:57.008Z,96969.84
2023-11-18T19:36:23.546Z,96957.69
2023-11-18T19:38:50.083Z,96948.25
2023-11-18T19:41:16.531Z,96941.91
2023-11-18T19:43:43.165Z,96940.97
2023-11-18T19:46:11.155Z,96941.03
2023-11-18T19:48:37.814Z,96936.78
2023-11-18T19:51:04.292Z,96936.28
2023-11-18T19:53:30.788Z,96937.16
2023-11-18T19:55:57.485Z,96940.19
2023-11-18T19:58:24.107Z,96938.69
2023-11-18T20:00:50.738Z,96935.66
2023-11-18T20:03:17.326Z,96932.34
2023-11-18T20:05:44.087Z,96915.50
2023-11-18T20:08:10.747Z,96921.47
2023-11-18T20:10:37.261Z,96928.22
2023-11-18T20:13:03.712Z,96916.44
2023-11-18T20:15:30.169Z,96923.88
2023-11-18T20:17:56.711Z,96912.13
2023-11-18T20:20:23.238Z,96912.50
2023-11-18T20:22:54.904Z,96932.13
2023-11-18T20:25:21.850Z,96938.13
2023-11-18T20:27:48.460Z,96944.28
2023-11-18T20:30:15.065Z,96949.88
2023-11-18T20:32:41.542Z,96942.59
2023-11-18T20:35:08.049Z,96939.03
2023-11-18T20:37:34.508Z,96933.16
2023-11-18T20:40:01.042Z,96931.69
2023-11-18T20:42:27.752Z,96934.84
2023-11-18T20:44:54.257Z,96928.00
2023-11-18T20:47:20.770Z,96924.63
2023-11-18T20:49:47.203Z,96922.84
2023-11-18T20:52:13.653Z,96933.84
2023-11-18T20:54:40.152Z,96934.03
2023-11-18T20:57:06.596Z,96937.22
2023-11-18T20:59:33.201Z,96928.44
2023-11-18T21:01:59.820Z,96930.13
2023-11-18T21:04:26.620Z,96922.03
2023-11-18T21:06:53.123Z,96923.59
2023-11-18T21:09:19.582Z,96932.31
2023-11-18T21:11:46.008Z,96920.13
2023-11-18T21:14:12.413Z,96916.88
2023-11-18T21:16:38.883Z,96906.72
2023-11-18T21:19:05.533Z,96885.09
2023-11-18T21:21:32.036Z,96896.97
2023-11-18T21:23:58.511Z,96892.00
2023-11-18T21:26:24.935Z,96888.81
2023-11-18T21:28:51.359Z,96907.25
2023-11-18T21:31:17.962Z,96887.28
2023-11-18T21:33:47.496Z,96887.03
2023-11-18T21:36:13.941Z,96893.22
2023-11-18T21:38:40.414Z,96902.00
2023-11-18T21:41:07.019Z,96900.16
2023-11-18T21:43:33.429Z,96880.72
2023-11-18T21:45:59.957Z,96889.25
2023-11-18T21:48:26.445Z,96892.16
2023-11-18T21:50:53.031Z,96879.13
2023-11-18T21:53:19.470Z,96871.31
2023-11-18T21:55:47.077Z,96872.81
2023-11-18T21:58:13.500Z,96868.41
2023-11-18T22:00:45.364Z,96861.44
2023-11-18T22:03:12.349Z,96845.66
2023-11-18T22:05:39.090Z,96860.16
2023-11-18T22:08:05.716Z,96860.19
2023-11-18T22:10:32.281Z,96856.84
2023-11-18T22:12:59.006Z,96859.38
2023-11-18T22:15:25.610Z,96877.72
2023-11-18T22:17:52.232Z,96867.72
2023-11-18T22:20:19.131Z,96879.66
2023-11-18T22:22:45.720Z,96867.63
2023-11-18T22:25:12.137Z,96862.06
2023-11-18T22:27:38.643Z,96861.06
2023-11-18T22:30:05.168Z,96860.28
2023-11-18T22:32:31.674Z,96856.59
2023-11-18T22:34:58.230Z,96868.88
2023-11-18T22:37:24.813Z,96855.78
2023-11-18T22:39:51.195Z,96864.44
2023-11-18T22:42:17.640Z,96858.53
2023-11-18T22:44:44.173Z,96872.28
2023-11-18T22:47:10.664Z,96860.34
2023-11-18T22:49:37.196Z,96867.81
2023-11-18T22:52:03.643Z,96870.53
2023-11-18T22:54:30.060Z,96864.66
2023-11-18T22:56:56.629Z,96876.22
2023-11-18T22:59:23.075Z,96864.28
2023-11-18T23:01:49.701Z,96864.81
2023-11-18T23:04:16.309Z,96856.69
2023-11-18T23:06:43.065Z,96852.84
2023-11-18T23:09:09.491Z,96860.63
2023-11-18T23:11:35.920Z,96860.56
2023-11-18T23:14:02.353Z,96855.94
2023-11-18T23:16:28.779Z,96865.69
2023-11-18T23:18:55.476Z,96851.66
2023-11-18T23:21:21.978Z,96865.97
2023-11-18T23:23:48.526Z,96864.03
2023-11-18T23:26:15.134Z,96858.00
2023-11-18T23:28:41.699Z,96865.69
2023-11-18T23:31:08.168Z,96860.06
2023-11-18T23:33:34.970Z,96858.66
2023-11-18T23:36:01.559Z,96861.38
2023-11-18T23:38:28.068Z,96860.72
2023-11-18T23:40:54.470Z,96859.16
2023-11-18T23:43:21.068Z,96852.44
2023-11-18T23:45:47.524Z,96850.28
2023-11-18T23:48:14.010Z,96855.53
2023-11-18T23:50:40.490Z,96848.16
2023-11-18T23:53:06.904Z,96846.47
2023-11-18T23:55:33.349Z,96843.34
2023-11-18T23:57:59.772Z,96842.19
